Time,TemperatureF,DewpointF,PressureIn,WindDirection,WindDirectionDegrees,WindSpeedMPH,WindSpeedGustMPH,Humidity,HourlyPrecipIn,Conditions,Clouds,dailyrainin,SoftwareType,DateUTC
2013-09-15 00:13:00,62.0,-99.9,-100.00,SSE,163,7.0,8.0,-999,0.00,,,0.00,,2013-09-15 05:13:00,
2013-09-15 00:23:00,62.0,-99.9,-100.00,SSE,163,7.0,8.0,-999,0.00,,,0.00,,2013-09-15 05:23:00,
2013-09-15 00:42:00,62.0,-99.9,-100.00,SSE,160,10.0,12.0,-999,0.00,,,0.00,,2013-09-15 05:42:00,
2013-09-15 00:53:00,62.0,-99.9,-100.00,SSE,160,10.0,12.0,-999,0.00,,,0.00,,2013-09-15 05:53:00,
2013-09-15 01:02:00,62.0,-99.9,-100.00,SSE,160,10.0,12.0,-999,0.00,,,0.00,,2013-09-15 06:02:00,
2013-09-15 01:22:00,63.0,-99.9,-100.00,SSE,161,10.0,13.0,-999,0.00,,,0.00,,2013-09-15 06:22:00,
2013-09-15 01:42:00,61.0,-99.9,-100.00,SSE,157,8.0,11.0,-999,0.00,,,0.00,,2013-09-15 06:42:00,
2013-09-15 01:52:00,61.0,-99.9,-100.00,SSE,157,8.0,11.0,-999,0.00,,,0.00,,2013-09-15 06:52:00,
2013-09-15 02:02:00,61.0,-99.9,-100.00,SSE,157,8.0,11.0,-999,0.00,,,0.00,,2013-09-15 07:02:00,
2013-09-15 02:10:00,61.0,-99.9,-100.00,SSE,152,10.0,13.0,-999,0.00,,,0.00,,2013-09-15 07:10:00,
2013-09-15 02:22:00,61.0,-99.9,-100.00,SSE,161,9.0,11.0,-999,0.00,,,0.00,,2013-09-15 07:22:00,
2013-09-15 02:42:00,61.0,-99.9,-100.00,SSE,152,10.0,13.0,-999,0.00,,,0.00,,2013-09-15 07:42:00,
2013-09-15 02:53:00,61.0,-99.9,-100.00,SSE,152,10.0,13.0,-999,0.00,,,0.00,,2013-09-15 07:53:00,
2013-09-15 03:02:00,61.0,-99.9,-100.00,SSE,152,10.0,13.0,-999,0.00,,,0.00,,2013-09-15 08:02:00,
2013-09-15 03:43:00,61.0,-99.9,-100.00,SSE,157,9.0,12.0,-999,0.00,,,0.00,,2013-09-15 08:43:00,
2013-09-15 03:52:00,61.0,-99.9,-100.00,SSE,157,9.0,12.0,-999,0.00,,,0.00,,2013-09-15 08:52:00,
2013-09-15 04:12:00,62.0,-99.9,-100.00,SSE,159,9.0,11.0,-999,0.00,,,0.00,,2013-09-15 09:12:00,
2013-09-15 04:22:00,62.0,-99.9,-100.00,SSE,159,9.0,11.0,-999,0.00,,,0.00,,2013-09-15 09:22:00,
2013-09-15 04:44:00,61.0,-99.9,-100.00,SSE,157,3.0,8.0,-999,0.01,,,-99.99,,2013-09-15 09:44:00,
2013-09-15 04:54:00,61.0,-99.9,-100.00,SSE,157,3.0,8.0,-999,0.01,,,-99.99,,2013-09-15 09:54:00,
2013-09-15 05:03:00,61.0,-99.9,-100.00,SSE,157,3.0,8.0,-999,0.01,,,-99.99,,2013-09-15 10:03:00,
2013-09-15 05:23:00,59.0,-99.9,-100.00,ESE,118,4.0,5.0,-999,0.01,,,0.01,,2013-09-15 10:23:00,
2013-09-15 05:43:00,61.0,-99.9,-100.00,ESE,123,4.0,7.0,-999,0.00,,,-99.99,,2013-09-15 10:43:00,
2013-09-15 05:53:00,61.0,-99.9,-100.00,ESE,123,4.0,7.0,-999,0.00,,,-99.99,,2013-09-15 10:53:00,
2013-09-15 06:02:00,61.0,-99.9,-100.00,ESE,123,4.0,7.0,-999,0.00,,,-99.99,,2013-09-15 11:02:00,
2013-09-15 06:22:00,60.0,-99.9,-100.00,East,88,4.0,9.0,-999,0.00,,,0.01,,2013-09-15 11:22:00,
2013-09-15 06:42:00,63.0,-99.9,-100.00,SE,146,9.0,13.0,-999,0.00,,,0.01,,2013-09-15 11:42:00,
2013-09-15 06:52:00,63.0,-99.9,-100.00,SE,146,9.0,13.0,-999,0.00,,,0.01,,2013-09-15 11:52:00,
2013-09-15 07:02:00,63.0,-99.9,-100.00,SE,146,9.0,13.0,-999,0.00,,,0.01,,2013-09-15 12:02:00,
2013-09-15 07:22:00,63.0,-99.9,-100.00,SE,130,6.0,9.0,-999,0.00,,,0.01,,2013-09-15 12:22:00,
2013-09-15 07:40:00,59.0,-99.9,-100.00,East,95,2.0,6.0,-999,0.00,,,0.01,,2013-09-15 12:40:00,
2013-09-15 07:42:00,61.0,-99.9,-100.00,ENE,57,3.0,6.0,-999,0.00,,,0.01,,2013-09-15 12:42:00,
2013-09-15 07:52:00,61.0,-99.9,-100.00,ENE,57,3.0,6.0,-999,0.00,,,0.01,,2013-09-15 12:52:00,
2013-09-15 08:11:00,59.0,-99.9,-100.00,East,95,2.0,6.0,-999,0.00,,,0.01,,2013-09-15 13:11:00,
2013-09-15 08:22:00,59.0,-99.9,-100.00,East,95,2.0,6.0,-999,0.00,,,0.01,,2013-09-15 13:22:00,
2013-09-15 08:32:00,59.0,-99.9,-100.00,East,95,2.0,6.0,-999,0.00,,,0.01,,2013-09-15 13:32:00,
2013-09-15 14:40:00,67.0,-99.9,-100.00,WNW,298,4.0,5.0,-999,0.00,,,0.02,,2013-09-15 19:40:00,
2013-09-15 14:42:00,67.0,-99.9,-100.00,WNW,286,6.0,7.0,-999,0.00,,,0.02,,2013-09-15 19:42:00,
2013-09-15 14:52:00,67.0,-99.9,-100.00,WNW,286,6.0,7.0,-999,0.00,,,0.02,,2013-09-15 19:52:00,
2013-09-15 15:11:00,67.0,-99.9,-100.00,WNW,298,4.0,5.0,-999,0.00,,,0.02,,2013-09-15 20:11:00,
2013-09-15 15:22:00,67.0,-99.9,-100.00,WNW,298,4.0,5.0,-999,0.00,,,0.02,,2013-09-15 20:22:00,
2013-09-15 15:32:00,67.0,-99.9,-100.00,WNW,298,4.0,5.0,-999,0.00,,,0.02,,2013-09-15 20:32:00,
2013-09-15 16:11:00,63.0,-99.9,-100.00,North,351,5.0,7.0,-999,0.04,,,0.06,,2013-09-15 21:11:00,
2013-09-15 16:22:00,63.0,-99.9,-100.00,North,351,5.0,7.0,-999,0.04,,,0.06,,2013-09-15 21:22:00,
2013-09-15 16:40:00,63.0,-99.9,-100.00,NNW,342,3.0,7.0,-999,0.00,,,0.06,,2013-09-15 21:40:00,
2013-09-15 16:44:00,63.0,-99.9,-100.00,NNW,344,4.0,7.0,-999,0.00,,,0.06,,2013-09-15 21:44:00,
2013-09-15 16:54:00,63.0,-99.9,-100.00,NNW,344,4.0,7.0,-999,0.00,,,0.06,,2013-09-15 21:54:00,
2013-09-15 17:14:00,63.0,-99.9,-100.00,NNW,342,3.0,7.0,-999,0.00,,,0.06,,2013-09-15 22:14:00,
2013-09-15 17:23:00,63.0,-99.9,-100.00,NNW,342,3.0,7.0,-999,0.00,,,0.06,,2013-09-15 22:23:00,
2013-09-15 17:33:00,63.0,-99.9,-100.00,NNW,342,3.0,7.0,-999,0.00,,,0.06,,2013-09-15 22:33:00,
2013-09-15 18:12:00,63.0,-99.9,-100.00,North,9,4.0,6.0,-999,0.00,,,0.06,,2013-09-15 23:12:00,
2013-09-15 18:22:00,63.0,-99.9,-100.00,North,9,4.0,6.0,-999,0.00,,,0.06,,2013-09-15 23:22:00,
2013-09-15 18:42:00,63.0,-99.9,-100.00,North,10,4.0,9.0,-999,0.00,,,0.06,,2013-09-15 23:42:00,
2013-09-15 18:53:00,63.0,-99.9,-100.00,North,10,4.0,9.0,-999,0.00,,,0.06,,2013-09-15 23:53:00,
2013-09-15 19:02:00,63.0,-99.9,-100.00,North,10,4.0,9.0,-999,0.00,,,0.06,,2013-09-16 00:02:00,
2013-09-15 19:22:00,63.0,-99.9,-100.00,North,353,3.0,5.0,-999,0.00,,,0.06,,2013-09-16 00:22:00,
2013-09-15 19:42:00,62.0,-99.9,-100.00,NNE,12,4.0,8.0,-999,0.00,,,0.06,,2013-09-16 00:42:00,
2013-09-15 19:52:00,62.0,-99.9,-100.00,NNE,12,4.0,8.0,-999,0.00,,,0.06,,2013-09-16 00:52:00,
2013-09-15 20:02:00,62.0,-99.9,-100.00,NNE,12,4.0,8.0,-999,0.00,,,0.06,,2013-09-16 01:02:00,
2013-09-15 20:22:00,62.0,-99.9,-100.00,North,8,2.0,6.0,-999,0.00,,,0.06,,2013-09-16 01:22:00,
2013-09-15 20:42:00,61.0,-99.9,-100.00,North,353,2.0,5.0,-999,0.00,,,0.06,,2013-09-16 01:42:00,
2013-09-15 20:52:00,61.0,-99.9,-100.00,North,353,2.0,5.0,-999,0.00,,,0.06,,2013-09-16 01:52:00,
2013-09-15 21:12:00,61.0,-99.9,-100.00,NNW,344,2.0,4.0,-999,0.00,,,0.06,,2013-09-16 02:12:00,
2013-09-15 21:22:00,61.0,-99.9,-100.00,NNW,344,2.0,4.0,-999,0.00,,,0.06,,2013-09-16 02:22:00,
2013-09-15 21:42:00,61.0,-99.9,-100.00,NNE,21,2.0,3.0,-999,0.00,,,0.06,,2013-09-16 02:42:00,
2013-09-15 21:52:00,61.0,-99.9,-100.00,NNE,21,2.0,3.0,-999,0.00,,,0.06,,2013-09-16 02:52:00,
2013-09-15 22:03:00,61.0,-99.9,-100.00,NNE,21,2.0,3.0,-999,0.00,,,0.06,,2013-09-16 03:03:00,
2013-09-15 22:23:00,61.0,-99.9,-100.00,NNW,348,2.0,6.0,-999,0.00,,,0.06,,2013-09-16 03:23:00,
2013-09-15 22:45:00,61.0,-99.9,-100.00,North,4,3.0,7.0,-999,0.00,,,0.06,,2013-09-16 03:45:00,
2013-09-15 22:55:00,61.0,-99.9,-100.00,North,4,3.0,7.0,-999,0.00,,,0.06,,2013-09-16 03:55:00,
2013-09-15 23:05:00,61.0,-99.9,-100.00,North,4,3.0,7.0,-999,0.00,,,0.06,,2013-09-16 04:05:00,
2013-09-15 23:24:00,59.0,-99.9,-100.00,North,-999,1.0,3.0,-999,0.00,,,0.06,,2013-09-16 04:24:00,
2013-09-15 23:43:00,58.0,-99.9,-100.00,North,9,1.0,2.0,-999,0.00,,,0.06,,2013-09-16 04:43:00,
2013-09-15 23:54:00,58.0,-99.9,-100.00,North,9,1.0,2.0,-999,0.00,,,0.06,,2013-09-16 04:54:00,